Time;durP1;ratioP1;P1;durP2;ratioP2;P2;SDS_P1;SDS_P2;PMS_P1;PMS_P2;Temp;Humidity;BMP_temperature;BMP_pressure;BME280_temperature;BME280_humidity;BME280_pressure;Samples;Min_cycle;Max_cycle;Signal;HPM_P1;HPM_P2
2024/01/23 00:01:20;;;;;;;20.33;3.45;;;;;;;;;;5024079;28;20197;-74
2024/01/23 00:03:46;;;;;;;21.25;3.28;;;;;;;;;;5041725;28;20189;-74
2024/01/23 00:06:11;;;;;;;22.65;3.30;;;;;;;;;;5039148;28;20228;-74
2024/01/23 00:08:37;;;;;;;20.70;3.20;;;;;;;;;;5040454;28;20223;-73
2024/01/23 00:11:03;;;;;;;18.10;3.15;;;;;;;;;;5035823;28;20548;-73
2024/01/23 00:13:28;;;;;;;22.77;3.15;;;;;;;;;;5038908;28;20701;-73
2024/01/23 00:15:54;;;;;;;18.08;3.03;;;;;;;;;;5032146;28;20317;-73
2024/01/23 00:18:19;;;;;;;19.23;3.10;;;;;;;;;;5028787;28;20260;-74
2024/01/23 00:20:46;;;;;;;18.63;3.67;;;;;;;;;;5039553;28;20198;-73
2024/01/23 00:23:12;;;;;;;27.73;3.50;;;;;;;;;;5032071;28;20240;-73
2024/01/23 00:25:38;;;;;;;18.63;2.75;;;;;;;;;;5043134;28;20254;-73
2024/01/23 00:28:04;;;;;;;20.83;3.28;;;;;;;;;;5029227;28;20194;-73
2024/01/23 00:30:29;;;;;;;13.27;2.50;;;;;;;;;;5044073;28;20486;-73
2024/01/23 00:32:54;;;;;;;20.77;3.15;;;;;;;;;;5029076;28;20197;-73
2024/01/23 00:35:20;;;;;;;20.50;3.00;;;;;;;;;;5034382;28;20923;-73
2024/01/23 00:37:45;;;;;;;18.35;2.88;;;;;;;;;;5045610;28;20272;-73
2024/01/23 00:40:12;;;;;;;21.02;3.55;;;;;;;;;;5029144;28;20281;-73
2024/01/23 00:42:37;;;;;;;19.02;2.88;;;;;;;;;;5040006;28;20200;-73
2024/01/23 00:45:03;;;;;;;19.33;3.03;;;;;;;;;;5042362;28;20186;-73
2024/01/23 00:47:30;;;;;;;21.15;2.95;;;;;;;;;;5036202;28;20231;-73
2024/01/23 00:49:56;;;;;;;12.55;2.30;;;;;;;;;;5030579;28;20598;-73
2024/01/23 00:52:21;;;;;;;18.67;2.83;;;;;;;;;;5040956;28;20237;-73
2024/01/23 00:54:47;;;;;;;19.13;2.30;;;;;;;;;;5047023;28;20186;-73
2024/01/23 00:57:12;;;;;;;25.90;2.53;;;;;;;;;;5042866;28;20264;-73
2024/01/23 00:59:38;;;;;;;12.70;2.28;;;;;;;;;;5031713;28;20220;-73
2024/01/23 01:02:03;;;;;;;12.93;2.50;;;;;;;;;;5040424;28;20196;-73
2024/01/23 01:04:29;;;;;;;13.05;2.10;;;;;;;;;;5047232;28;20330;-73
2024/01/23 01:06:54;;;;;;;17.00;2.20;;;;;;;;;;5045344;28;20213;-73
2024/01/23 01:09:20;;;;;;;17.95;2.33;;;;;;;;;;5023920;28;20722;-73
2024/01/23 01:11:45;;;;;;;15.60;2.20;;;;;;;;;;5034680;28;20268;-73
2024/01/23 01:14:11;;;;;;;14.18;2.58;;;;;;;;;;5029302;28;20197;-73
2024/01/23 01:16:36;;;;;;;15.15;2.45;;;;;;;;;;5032460;28;20301;-73
2024/01/23 01:19:03;;;;;;;16.77;2.72;;;;;;;;;;5049371;28;20283;-73
2024/01/23 01:21:29;;;;;;;19.50;2.95;;;;;;;;;;5038817;28;20228;-73
2024/01/23 01:23:54;;;;;;;16.15;2.47;;;;;;;;;;5040024;28;20213;-73
2024/01/23 01:26:20;;;;;;;18.15;2.85;;;;;;;;;;5048357;28;20698;-73
2024/01/23 01:28:45;;;;;;;22.42;3.30;;;;;;;;;;5042361;28;20201;-73
2024/01/23 01:31:11;;;;;;;14.18;2.83;;;;;;;;;;5033323;28;20197;-73
2024/01/23 01:33:36;;;;;;;13.75;2.53;;;;;;;;;;5034551;28;20640;-73
2024/01/23 01:36:02;;;;;;;17.27;2.80;;;;;;;;;;5034764;28;20727;-74
2024/01/23 01:38:28;;;;;;;27.13;2.67;;;;;;;;;;5042844;28;20220;-72
2024/01/23 01:40:54;;;;;;;18.05;2.75;;;;;;;;;;5038311;28;20190;-73
2024/01/23 01:43:27;;;;;;;16.90;2.77;;;;;;;;;;5040564;28;20189;-73
2024/01/23 01:46:17;;;;;;;17.85;2.97;;;;;;;;;;5037491;28;20208;-73
2024/01/23 01:48:43;;;;;;;17.07;2.97;;;;;;;;;;5038011;28;20613;-73
2024/01/23 01:51:09;;;;;;;17.70;2.47;;;;;;;;;;5048429;28;20284;-73
2024/01/23 01:53:35;;;;;;;19.00;2.42;;;;;;;;;;5031801;28;20269;-73
2024/01/23 01:56:02;;;;;;;17.63;2.78;;;;;;;;;;5038147;28;20285;-73
2024/01/23 01:58:30;;;;;;;16.17;3.08;;;;;;;;;;5055688;28;20197;-74
2024/01/23 02:00:57;;;;;;;24.85;3.97;;;;;;;;;;5046008;28;20200;-73
2024/01/23 02:03:23;;;;;;;17.35;3.03;;;;;;;;;;5042502;28;20222;-73
2024/01/23 02:05:50;;;;;;;16.23;3.00;;;;;;;;;;5026805;28;20241;-73
2024/01/23 02:08:16;;;;;;;22.42;3.25;;;;;;;;;;5024267;28;20209;-73
2024/01/23 02:10:42;;;;;;;18.65;2.88;;;;;;;;;;5041410;28;20197;-72
2024/01/23 02:13:08;;;;;;;17.80;2.93;;;;;;;;;;5025489;28;20205;-73
2024/01/23 02:15:34;;;;;;;17.80;2.50;;;;;;;;;;5036095;28;20237;-73
2024/01/23 02:18:00;;;;;;;15.70;2.80;;;;;;;;;;5045276;28;20833;-73
2024/01/23 02:20:26;;;;;;;16.25;2.78;;;;;;;;;;5042060;28;20186;-73
2024/01/23 02:22:52;;;;;;;19.63;2.92;;;;;;;;;;5040495;28;20201;-73
2024/01/23 02:25:18;;;;;;;25.90;5.47;;;;;;;;;;5041701;28;20633;-73
2024/01/23 02:27:43;;;;;;;19.13;2.88;;;;;;;;;;5041898;28;20181;-73
2024/01/23 02:30:10;;;;;;;26.70;3.40;;;;;;;;;;5041045;28;20309;-74
2024/01/23 02:32:35;;;;;;;21.27;2.80;;;;;;;;;;5038601;28;20186;-74
2024/01/23 02:35:01;;;;;;;15.80;3.00;;;;;;;;;;5037520;28;20642;-74
2024/01/23 02:37:26;;;;;;;26.87;3.10;;;;;;;;;;5029059;28;20182;-74
2024/01/23 02:39:52;;;;;;;19.95;3.08;;;;;;;;;;5030804;28;20256;-74
2024/01/23 02:42:18;;;;;;;15.03;2.83;;;;;;;;;;5050267;28;20208;-75
2024/01/23 02:44:45;;;;;;;26.93;3.43;;;;;;;;;;5046793;28;20193;-74
2024/01/23 02:47:14;;;;;;;21.37;3.43;;;;;;;;;;5029365;28;20214;-74
2024/01/23 02:49:39;;;;;;;17.70;3.83;;;;;;;;;;5032293;28;20558;-73
2024/01/23 02:52:05;;;;;;;16.23;3.57;;;;;;;;;;5042261;28;20210;-74
2024/01/23 02:54:31;;;;;;;20.13;3.10;;;;;;;;;;5031153;28;20483;-74
2024/01/23 02:56:57;;;;;;;17.38;2.85;;;;;;;;;;5044053;28;20193;-75
2024/01/23 02:59:23;;;;;;;18.93;3.33;;;;;;;;;;5042721;28;20185;-74
2024/01/23 03:01:48;;;;;;;26.97;2.97;;;;;;;;;;5049506;28;20319;-74
2024/01/23 03:04:14;;;;;;;20.15;3.10;;;;;;;;;;5038951;28;20234;-73
2024/01/23 03:06:39;;;;;;;23.20;2.93;;;;;;;;;;5030346;28;20623;-73
2024/01/23 03:09:06;;;;;;;22.50;3.40;;;;;;;;;;5038477;28;20268;-73
2024/01/23 03:11:31;;;;;;;18.93;2.83;;;;;;;;;;5042711;28;20189;-73
2024/01/23 03:13:57;;;;;;;21.23;3.53;;;;;;;;;;5029033;28;20212;-73
2024/01/23 03:16:22;;;;;;;13.03;3.23;;;;;;;;;;5032212;28;20689;-73
2024/01/23 03:18:49;;;;;;;14.73;3.30;;;;;;;;;;5036799;28;20306;-74
2024/01/23 03:21:14;;;;;;;18.43;2.93;;;;;;;;;;5040295;28;20226;-73
2024/01/23 03:23:40;;;;;;;16.70;2.80;;;;;;;;;;5048377;28;20672;-73
2024/01/23 03:26:05;;;;;;;19.13;2.63;;;;;;;;;;5040106;28;20762;-73
2024/01/23 03:28:31;;;;;;;15.43;2.53;;;;;;;;;;5030519;28;20598;-73
2024/01/23 03:30:56;;;;;;;25.77;3.10;;;;;;;;;;5040644;28;20281;-73
2024/01/23 03:33:21;;;;;;;20.23;3.17;;;;;;;;;;5035124;28;20185;-73
2024/01/23 03:35:47;;;;;;;17.97;2.87;;;;;;;;;;5035226;28;20220;-73
2024/01/23 03:38:13;;;;;;;23.73;3.77;;;;;;;;;;5035895;28;20600;-73
2024/01/23 03:40:39;;;;;;;15.27;3.27;;;;;;;;;;5047755;28;20185;-72
2024/01/23 03:43:04;;;;;;;18.03;2.93;;;;;;;;;;5038468;28;20196;-74
2024/01/23 03:45:30;;;;;;;18.03;3.03;;;;;;;;;;5033872;28;20606;-72
2024/01/23 03:47:55;;;;;;;24.47;3.00;;;;;;;;;;5035450;28;20264;-73
2024/01/23 03:50:21;;;;;;;21.07;3.03;;;;;;;;;;5046092;28;20186;-72
2024/01/23 03:52:46;;;;;;;27.67;3.70;;;;;;;;;;5031422;28;20220;-72
2024/01/23 03:55:12;;;;;;;17.40;3.13;;;;;;;;;;5044927;28;20186;-72
2024/01/23 03:57:37;;;;;;;15.20;2.50;;;;;;;;;;5041382;28;20193;-72
2024/01/23 04:00:04;;;;;;;22.17;3.03;;;;;;;;;;5036082;28;20193;-72
2024/01/23 04:02:31;;;;;;;18.63;2.70;;;;;;;;;;5032537;28;20247;-73
2024/01/23 04:04:57;;;;;;;26.00;2.90;;;;;;;;;;5035403;28;20197;-72
2024/01/23 04:07:23;;;;;;;18.50;2.97;;;;;;;;;;5029220;28;20681;-73
2024/01/23 04:09:49;;;;;;;21.17;2.73;;;;;;;;;;5041775;28;20273;-73
2024/01/23 04:12:14;;;;;;;21.43;2.77;;;;;;;;;;5032969;28;20200;-72
2024/01/23 04:14:42;;;;;;;21.73;3.88;;;;;;;;;;5043655;28;20220;-72
2024/01/23 04:17:09;;;;;;;22.83;3.37;;;;;;;;;;5048566;28;20232;-73
2024/01/23 04:19:36;;;;;;;25.20;3.23;;;;;;;;;;5030695;28;20229;-72
2024/01/23 04:22:02;;;;;;;27.53;4.20;;;;;;;;;;5039644;28;20186;-72
2024/01/23 04:24:27;;;;;;;20.57;3.70;;;;;;;;;;5044564;28;20643;-72
2024/01/23 04:26:52;;;;;;;23.93;3.30;;;;;;;;;;5034159;28;20210;-72
2024/01/23 04:29:18;;;;;;;23.27;3.33;;;;;;;;;;5045988;28;20552;-72
2024/01/23 04:31:43;;;;;;;23.07;3.63;;;;;;;;;;5037509;28;20231;-72
2024/01/23 04:34:09;;;;;;;26.40;4.73;;;;;;;;;;5039288;28;20264;-73
2024/01/23 04:36:34;;;;;;;22.73;3.40;;;;;;;;;;5039283;28;20189;-72
2024/01/23 04:38:59;;;;;;;22.13;2.85;;;;;;;;;;5046171;28;20189;-72
2024/01/23 04:41:26;;;;;;;19.00;3.07;;;;;;;;;;5048328;28;20205;-73
2024/01/23 04:43:51;;;;;;;18.90;3.10;;;;;;;;;;5035544;28;20187;-72
2024/01/23 04:46:16;;;;;;;18.17;3.08;;;;;;;;;;5040697;28;20236;-72
2024/01/23 04:48:42;;;;;;;18.63;2.88;;;;;;;;;;5040023;28;20212;-73
2024/01/23 04:51:08;;;;;;;23.30;2.60;;;;;;;;;;5045531;28;20284;-73
2024/01/23 04:53:33;;;;;;;23.17;4.60;;;;;;;;;;5043276;28;20227;-74
2024/01/23 04:55:59;;;;;;;18.63;3.38;;;;;;;;;;5037732;28;20197;-74
2024/01/23 04:58:25;;;;;;;19.93;3.00;;;;;;;;;;5035314;28;20204;-74
2024/01/23 05:00:50;;;;;;;21.70;3.33;;;;;;;;;;5031892;28;20559;-73
2024/01/23 05:03:16;;;;;;;19.23;3.13;;;;;;;;;;5041470;28;20198;-73
2024/01/23 05:05:41;;;;;;;15.97;2.80;;;;;;;;;;5036453;28;20213;-73
2024/01/23 05:08:06;;;;;;;25.13;3.50;;;;;;;;;;5049976;28;20236;-73
2024/01/23 05:10:33;;;;;;;18.80;3.53;;;;;;;;;;5040204;28;20197;-73
2024/01/23 05:12:58;;;;;;;16.63;2.80;;;;;;;;;;5036033;28;20189;-73
2024/01/23 05:15:24;;;;;;;19.65;3.20;;;;;;;;;;5038551;28;20288;-73
2024/01/23 05:17:49;;;;;;;20.75;3.10;;;;;;;;;;5040981;28;20213;-73
2024/01/23 05:20:15;;;;;;;21.10;3.65;;;;;;;;;;5035874;28;20243;-73
2024/01/23 05:22:40;;;;;;;24.77;3.25;;;;;;;;;;5028081;28;20564;-74
2024/01/23 05:25:06;;;;;;;22.23;3.40;;;;;;;;;;5032985;28;20185;-73
2024/01/23 05:27:32;;;;;;;22.38;3.42;;;;;;;;;;5044417;28;20295;-73
2024/01/23 05:29:57;;;;;;;18.88;3.20;;;;;;;;;;5027840;28;20583;-73
2024/01/23 05:32:23;;;;;;;24.67;2.80;;;;;;;;;;5039618;28;20204;-74
2024/01/23 05:34:48;;;;;;;16.73;3.03;;;;;;;;;;5040746;28;20178;-74
2024/01/23 05:37:14;;;;;;;21.00;3.15;;;;;;;;;;5042601;28;20190;-73
2024/01/23 05:39:39;;;;;;;20.38;3.10;;;;;;;;;;5015242;28;20189;-73
2024/01/23 05:42:06;;;;;;;25.58;3.10;;;;;;;;;;5032408;28;20273;-73
2024/01/23 05:44:32;;;;;;;27.25;3.50;;;;;;;;;;5044637;28;20552;-73
2024/01/23 05:46:58;;;;;;;21.67;3.00;;;;;;;;;;5032260;28;20765;-73
2024/01/23 05:49:24;;;;;;;19.50;3.47;;;;;;;;;;5031419;28;20196;-74
2024/01/23 05:51:49;;;;;;;19.80;3.58;;;;;;;;;;5033683;28;20208;-73
2024/01/23 05:54:15;;;;;;;17.10;3.28;;;;;;;;;;5027139;28;20583;-73
2024/01/23 05:56:40;;;;;;;19.23;3.03;;;;;;;;;;5028177;28;20182;-73
2024/01/23 05:59:06;;;;;;;22.38;3.05;;;;;;;;;;5052062;28;20545;-74
2024/01/23 06:01:32;;;;;;;19.77;3.83;;;;;;;;;;5039385;28;20278;-73
2024/01/23 06:03:57;;;;;;;20.52;3.75;;;;;;;;;;5035833;28;20603;-72
2024/01/23 06:06:22;;;;;;;20.98;3.33;;;;;;;;;;5035399;28;20217;-72
2024/01/23 06:08:48;;;;;;;24.92;3.03;;;;;;;;;;5049679;28;20244;-72
2024/01/23 06:11:13;;;;;;;26.85;3.10;;;;;;;;;;5034592;28;20826;-73
2024/01/23 06:13:39;;;;;;;20.73;3.92;;;;;;;;;;5031640;28;20442;-73
2024/01/23 06:16:05;;;;;;;21.73;3.63;;;;;;;;;;5033035;28;20226;-73
2024/01/23 06:18:30;;;;;;;23.08;3.55;;;;;;;;;;5047219;28;20205;-73
2024/01/23 06:20:57;;;;;;;26.58;3.55;;;;;;;;;;5045919;28;20204;-73
2024/01/23 06:23:24;;;;;;;23.50;3.22;;;;;;;;;;5046798;28;20204;-73
2024/01/23 06:25:50;;;;;;;31.48;4.00;;;;;;;;;;5038627;28;20229;-72
2024/01/23 06:28:16;;;;;;;27.10;3.78;;;;;;;;;;5037172;28;20201;-73
2024/01/23 06:30:42;;;;;;;26.27;3.38;;;;;;;;;;5043257;28;20313;-73
2024/01/23 06:33:08;;;;;;;18.77;3.97;;;;;;;;;;5049475;28;20193;-72
2024/01/23 06:35:33;;;;;;;22.38;3.97;;;;;;;;;;5036728;28;20186;-71
2024/01/23 06:37:59;;;;;;;24.00;4.18;;;;;;;;;;5033936;28;20193;-73
2024/01/23 06:40:24;;;;;;;24.30;3.38;;;;;;;;;;5037452;28;20209;-73
2024/01/23 06:42:49;;;;;;;21.27;3.63;;;;;;;;;;5047685;28;20504;-73
2024/01/23 06:45:15;;;;;;;22.92;3.63;;;;;;;;;;5046951;28;20379;-72
2024/01/23 06:47:41;;;;;;;18.20;3.60;;;;;;;;;;5047222;28;20277;-73
2024/01/23 06:50:07;;;;;;;20.42;3.70;;;;;;;;;;5055304;28;20192;-72
2024/01/23 06:52:32;;;;;;;26.20;3.75;;;;;;;;;;5031677;28;20598;-73
2024/01/23 06:54:58;;;;;;;22.50;3.85;;;;;;;;;;5034336;28;20215;-73
2024/01/23 06:57:24;;;;;;;26.48;3.72;;;;;;;;;;5032451;28;20240;-73
2024/01/23 06:59:50;;;;;;;20.25;3.75;;;;;;;;;;5047108;28;20321;-73
2024/01/23 07:02:15;;;;;;;26.73;3.47;;;;;;;;;;5039861;28;20790;-73
2024/01/23 07:04:41;;;;;;;24.25;3.75;;;;;;;;;;5050458;28;20239;-72
2024/01/23 07:07:06;;;;;;;26.70;3.80;;;;;;;;;;5036019;28;20221;-73
2024/01/23 07:09:32;;;;;;;27.90;3.83;;;;;;;;;;5045100;28;20227;-73
2024/01/23 07:11:58;;;;;;;22.95;3.45;;;;;;;;;;5045987;28;20200;-74
2024/01/23 07:14:23;;;;;;;24.70;3.42;;;;;;;;;;5033028;28;20186;-73
2024/01/23 07:16:49;;;;;;;21.90;3.43;;;;;;;;;;5037363;28;20210;-73
2024/01/23 07:19:14;;;;;;;21.90;3.85;;;;;;;;;;5038765;28;20264;-74
2024/01/23 07:21:40;;;;;;;24.88;4.50;;;;;;;;;;5040297;28;20273;-73
2024/01/23 07:24:07;;;;;;;25.73;4.05;;;;;;;;;;5037964;28;20198;-74
2024/01/23 07:26:32;;;;;;;23.98;4.00;;;;;;;;;;5034341;28;20210;-74
2024/01/23 07:28:58;;;;;;;26.17;3.97;;;;;;;;;;5032521;28;20244;-74
2024/01/23 07:31:23;;;;;;;27.98;3.90;;;;;;;;;;5037193;28;20664;-74
2024/01/23 07:33:48;;;;;;;24.95;3.47;;;;;;;;;;5032626;28;20182;-74
2024/01/23 07:36:14;;;;;;;24.20;3.70;;;;;;;;;;5038641;28;20618;-74
2024/01/23 07:38:39;;;;;;;23.93;3.90;;;;;;;;;;5035207;28;20194;-74
2024/01/23 07:41:05;;;;;;;21.27;4.22;;;;;;;;;;5026268;28;20189;-74
2024/01/23 07:43:30;;;;;;;25.17;4.43;;;;;;;;;;5029177;28;20182;-74
2024/01/23 07:45:56;;;;;;;24.17;3.90;;;;;;;;;;5035234;28;20209;-75
2024/01/23 07:48:21;;;;;;;20.20;3.72;;;;;;;;;;5045246;28;20189;-74
2024/01/23 07:50:47;;;;;;;22.80;3.60;;;;;;;;;;5029173;28;20200;-74
2024/01/23 07:53:12;;;;;;;22.13;4.30;;;;;;;;;;5030395;28;20613;-76
2024/01/23 07:55:38;;;;;;;18.60;3.83;;;;;;;;;;5029379;28;20182;-74
2024/01/23 07:58:03;;;;;;;21.37;3.87;;;;;;;;;;5038860;28;20185;-74
2024/01/23 08:00:29;;;;;;;27.13;3.85;;;;;;;;;;5043331;28;20190;-74
2024/01/23 08:02:54;;;;;;;20.50;3.10;;;;;;;;;;5028703;28;20182;-74
2024/01/23 08:05:20;;;;;;;22.80;3.30;;;;;;;;;;5029492;28;20185;-75
2024/01/23 08:07:45;;;;;;;31.40;4.00;;;;;;;;;;5026446;28;20178;-74
2024/01/23 08:10:11;;;;;;;26.33;3.63;;;;;;;;;;5029760;28;20186;-75
2024/01/23 08:12:36;;;;;;;19.90;3.90;;;;;;;;;;5028600;28;20190;-74
2024/01/23 08:15:02;;;;;;;29.33;4.00;;;;;;;;;;5033664;28;20222;-74
2024/01/23 08:17:28;;;;;;;26.10;4.00;;;;;;;;;;5035987;28;20182;-74
2024/01/23 08:19:53;;;;;;;26.10;3.22;;;;;;;;;;5034987;28;20209;-74
2024/01/23 08:22:19;;;;;;;26.40;3.67;;;;;;;;;;5041264;28;20186;-74
2024/01/23 08:24:45;;;;;;;28.65;3.17;;;;;;;;;;5032148;28;20269;-74
2024/01/23 08:27:10;;;;;;;26.15;3.60;;;;;;;;;;5040611;28;20210;-74
2024/01/23 08:29:36;;;;;;;31.77;3.37;;;;;;;;;;5030455;28;20208;-74
2024/01/23 08:32:01;;;;;;;33.50;4.23;;;;;;;;;;5036962;28;20646;-74
2024/01/23 08:34:27;;;;;;;22.80;3.07;;;;;;;;;;5032980;28;20190;-74
2024/01/23 08:36:52;;;;;;;31.07;4.23;;;;;;;;;;5037968;28;20174;-73
2024/01/23 08:39:18;;;;;;;27.27;3.70;;;;;;;;;;5035689;28;20561;-73
2024/01/23 08:41:43;;;;;;;29.60;3.83;;;;;;;;;;5027169;28;20206;-74
2024/01/23 08:44:09;;;;;;;27.60;4.13;;;;;;;;;;5036913;28;20189;-73
2024/01/23 08:46:34;;;;;;;27.27;3.37;;;;;;;;;;5035529;28;20681;-74
2024/01/23 08:49:00;;;;;;;24.63;3.50;;;;;;;;;;5037672;28;20317;-74
2024/01/23 08:51:28;;;;;;;30.47;3.83;;;;;;;;;;5026914;28;20186;-73
2024/01/23 08:53:53;;;;;;;24.90;3.40;;;;;;;;;;5030669;28;20174;-73
2024/01/23 08:56:23;;;;;;;31.90;4.73;;;;;;;;;;5034189;28;20185;-73
2024/01/23 08:58:49;;;;;;;28.10;3.87;;;;;;;;;;5037670;28;20200;-72
2024/01/23 09:01:16;;;;;;;26.37;4.27;;;;;;;;;;5037248;28;20185;-72
2024/01/23 09:03:42;;;;;;;25.43;3.73;;;;;;;;;;5040531;28;20613;-72
2024/01/23 09:06:09;;;;;;;25.70;3.40;;;;;;;;;;5035931;28;20222;-72
2024/01/23 09:08:35;;;;;;;29.17;4.80;;;;;;;;;;5043261;28;20536;-73
2024/01/23 09:11:00;;;;;;;22.47;4.47;;;;;;;;;;5035666;28;20193;-72
2024/01/23 09:13:31;;;;;;;27.50;4.77;;;;;;;;;;5030995;28;20321;-73
2024/01/23 09:15:56;;;;;;;27.87;3.70;;;;;;;;;;5034849;28;20610;-72
2024/01/23 09:18:22;;;;;;;25.00;4.30;;;;;;;;;;5039927;28;20244;-73
2024/01/23 09:20:47;;;;;;;28.47;4.00;;;;;;;;;;5038504;28;20213;-72
2024/01/23 09:23:13;;;;;;;27.03;4.20;;;;;;;;;;5038625;28;20189;-72
2024/01/23 09:25:38;;;;;;;25.33;3.83;;;;;;;;;;5027093;28;20677;-72
2024/01/23 09:28:03;;;;;;;33.43;4.40;;;;;;;;;;5034141;28;20212;-72
2024/01/23 09:30:29;;;;;;;18.63;3.77;;;;;;;;;;5031098;28;20193;-72
2024/01/23 09:32:55;;;;;;;27.37;3.90;;;;;;;;;;5042669;28;20496;-72
2024/01/23 09:35:20;;;;;;;30.92;4.38;;;;;;;;;;5037156;28;20255;-72
2024/01/23 09:37:46;;;;;;;30.13;4.03;;;;;;;;;;5043540;28;20185;-72
2024/01/23 09:40:12;;;;;;;28.70;4.07;;;;;;;;;;5050505;28;20194;-71
2024/01/23 09:42:40;;;;;;;25.17;3.80;;;;;;;;;;5048410;28;20203;-73
2024/01/23 09:45:19;;;;;;;23.90;3.83;;;;;;;;;;5041628;28;20189;-72
2024/01/23 09:47:47;;;;;;;22.98;3.97;;;;;;;;;;5052193;28;20278;-72
2024/01/23 09:50:13;;;;;;;27.73;3.78;;;;;;;;;;5045638;28;20182;-72
2024/01/23 09:52:42;;;;;;;28.77;4.47;;;;;;;;;;5038144;28;20190;-72
2024/01/23 09:55:08;;;;;;;29.77;5.32;;;;;;;;;;5044448;28;20185;-72
2024/01/23 09:57:33;;;;;;;23.58;4.35;;;;;;;;;;5033501;28;20197;-74
2024/01/23 09:59:59;;;;;;;30.77;3.90;;;;;;;;;;5032663;28;20542;-72
2024/01/23 10:02:25;;;;;;;27.13;3.97;;;;;;;;;;5031703;28;20260;-72
2024/01/23 10:04:52;;;;;;;26.50;4.03;;;;;;;;;;5031495;28;20194;-72
2024/01/23 10:07:17;;;;;;;24.15;3.45;;;;;;;;;;5035766;28;20241;-73
2024/01/23 10:09:49;;;;;;;27.65;4.28;;;;;;;;;;5030925;28;20645;-72
2024/01/23 10:12:15;;;;;;;31.23;4.32;;;;;;;;;;5035338;28;20196;-72
2024/01/23 10:14:44;;;;;;;26.98;4.32;;;;;;;;;;5045138;28;20672;-71
2024/01/23 10:17:10;;;;;;;26.10;3.70;;;;;;;;;;5029669;28;20230;-72
2024/01/23 10:19:36;;;;;;;25.10;3.90;;;;;;;;;;5031828;28;20302;-72
2024/01/23 10:22:03;;;;;;;32.28;3.85;;;;;;;;;;5042762;28;20704;-72
2024/01/23 10:24:29;;;;;;;28.70;4.60;;;;;;;;;;5040152;28;20241;-72
2024/01/23 10:26:55;;;;;;;25.13;3.93;;;;;;;;;;5025963;28;20491;-73
2024/01/23 10:29:20;;;;;;;25.03;4.53;;;;;;;;;;5040364;28;20193;-72
2024/01/23 10:31:46;;;;;;;21.67;3.80;;;;;;;;;;5036418;28;20645;-72
2024/01/23 10:34:12;;;;;;;29.43;4.57;;;;;;;;;;5033906;28;20190;-73
2024/01/23 10:36:40;;;;;;;29.08;4.05;;;;;;;;;;5034783;28;20752;-73
2024/01/23 10:39:06;;;;;;;32.80;4.88;;;;;;;;;;5045919;28;20186;-73
2024/01/23 10:41:33;;;;;;;27.00;4.45;;;;;;;;;;5038224;28;20259;-72
2024/01/23 10:44:01;;;;;;;25.80;4.20;;;;;;;;;;5036266;28;20197;-72
2024/01/23 10:46:28;;;;;;;27.42;4.07;;;;;;;;;;5031128;28;20214;-73
2024/01/23 10:48:54;;;;;;;23.70;4.65;;;;;;;;;;5035281;28;20323;-73
2024/01/23 10:51:20;;;;;;;28.88;4.63;;;;;;;;;;5039577;28;20197;-73
2024/01/23 10:53:57;;;;;;;27.13;3.92;;;;;;;;;;5048408;28;20212;-72
2024/01/23 10:56:24;;;;;;;28.85;4.38;;;;;;;;;;5037295;28;20254;-72
2024/01/23 10:59:05;;;;;;;25.60;3.92;;;;;;;;;;5046026;28;20280;-73
2024/01/23 11:01:33;;;;;;;31.45;5.28;;;;;;;;;;5045089;28;20280;-73
2024/01/23 11:04:00;;;;;;;24.23;4.20;;;;;;;;;;5042372;28;20254;-73
2024/01/23 11:06:31;;;;;;;24.08;4.28;;;;;;;;;;5034659;28;20616;-73
2024/01/23 11:09:06;;;;;;;19.60;4.00;;;;;;;;;;5051445;28;20239;-73
2024/01/23 11:11:43;;;;;;;30.95;4.32;;;;;;;;;;5046400;28;20214;-73
2024/01/23 11:14:21;;;;;;;29.92;4.15;;;;;;;;;;5045090;28;20232;-73
2024/01/23 11:17:09;;;;;;;30.20;4.53;;;;;;;;;;5048651;28;20235;-73
2024/01/23 11:19:41;;;;;;;25.23;4.18;;;;;;;;;;5044906;28;20646;-72
2024/01/23 11:22:08;;;;;;;26.88;4.88;;;;;;;;;;5044552;28;20200;-73
2024/01/23 11:24:45;;;;;;;18.90;3.90;;;;;;;;;;5050450;28;20202;-73
2024/01/23 11:27:25;;;;;;;27.05;4.05;;;;;;;;;;5044040;28;20213;-72
2024/01/23 11:29:52;;;;;;;25.38;3.90;;;;;;;;;;5048306;28;20535;-72
2024/01/23 11:32:25;;;;;;;25.30;3.83;;;;;;;;;;5036763;28;20654;-72
2024/01/23 11:34:58;;;;;;;24.90;3.75;;;;;;;;;;5019034;28;20221;-74
2024/01/23 11:37:46;;;;;;;31.05;4.65;;;;;;;;;;5029321;28;20630;-73
2024/01/23 11:40:27;;;;;;;23.85;4.60;;;;;;;;;;5041567;28;20302;-73
2024/01/23 11:42:53;;;;;;;20.95;4.38;;;;;;;;;;5029494;28;20186;-73
2024/01/23 11:45:29;;;;;;;32.78;4.05;;;;;;;;;;5034863;28;20190;-73
2024/01/23 11:47:57;;;;;;;24.02;3.67;;;;;;;;;;5036192;28;20532;-73
2024/01/23 11:50:23;;;;;;;25.08;3.63;;;;;;;;;;5035450;28;20356;-73
2024/01/23 11:52:52;;;;;;;25.65;4.57;;;;;;;;;;5030263;28;20712;-73
2024/01/23 11:55:18;;;;;;;23.45;4.15;;;;;;;;;;5031571;28;20191;-73
2024/01/23 11:57:44;;;;;;;31.48;4.40;;;;;;;;;;5035882;28;20195;-72
2024/01/23 12:00:10;;;;;;;25.33;5.05;;;;;;;;;;5039319;28;20197;-72
2024/01/23 12:02:36;;;;;;;28.88;4.15;;;;;;;;;;5037456;28;20182;-72
2024/01/23 12:05:02;;;;;;;38.20;4.90;;;;;;;;;;5048465;28;20268;-72
2024/01/23 12:07:28;;;;;;;24.40;3.90;;;;;;;;;;5049498;28;20322;-72
2024/01/23 12:09:53;;;;;;;26.88;4.63;;;;;;;;;;5038799;28;20188;-72
2024/01/23 12:12:19;;;;;;;29.60;4.20;;;;;;;;;;5032963;28;20185;-72
2024/01/23 12:14:45;;;;;;;30.30;4.15;;;;;;;;;;5045147;28;20264;-73
2024/01/23 12:17:10;;;;;;;24.40;4.32;;;;;;;;;;5041284;28;20228;-73
2024/01/23 12:19:48;;;;;;;30.55;4.60;;;;;;;;;;5052332;28;20754;-72
2024/01/23 12:22:15;;;;;;;26.17;3.80;;;;;;;;;;5039232;28;20583;-72
2024/01/23 12:24:42;;;;;;;28.17;4.45;;;;;;;;;;5053752;28;20561;-72
2024/01/23 12:27:08;;;;;;;24.30;4.35;;;;;;;;;;5043152;28;20722;-72
2024/01/23 12:29:34;;;;;;;27.67;4.38;;;;;;;;;;5029949;28;20186;-72
2024/01/23 12:32:01;;;;;;;24.00;4.38;;;;;;;;;;5043907;28;20197;-73
2024/01/23 12:34:26;;;;;;;27.23;4.30;;;;;;;;;;5042240;28;20185;-73
2024/01/23 12:36:52;;;;;;;26.55;4.32;;;;;;;;;;5039083;28;20556;-72
2024/01/23 12:39:17;;;;;;;18.55;4.15;;;;;;;;;;5038378;28;20289;-72
2024/01/23 12:41:43;;;;;;;23.30;4.47;;;;;;;;;;5049257;28;20234;-73
2024/01/23 12:44:09;;;;;;;32.10;4.38;;;;;;;;;;5036714;28;20193;-73
2024/01/23 12:46:34;;;;;;;31.23;4.53;;;;;;;;;;5037688;28;20367;-72
2024/01/23 12:49:07;;;;;;;23.15;4.05;;;;;;;;;;5048022;28;20557;-72
2024/01/23 12:51:35;;;;;;;27.08;4.05;;;;;;;;;;5031332;28;20307;-72
2024/01/23 12:54:00;;;;;;;28.70;3.67;;;;;;;;;;5040090;28;20261;-72
2024/01/23 12:56:26;;;;;;;22.77;4.47;;;;;;;;;;5034871;28;20792;-72
2024/01/23 12:58:51;;;;;;;22.30;4.45;;;;;;;;;;5037601;28;20594;-72
2024/01/23 13:01:18;;;;;;;31.63;4.70;;;;;;;;;;5029583;28;20190;-72
2024/01/23 13:03:44;;;;;;;30.10;5.18;;;;;;;;;;5038488;28;20259;-72
2024/01/23 13:06:09;;;;;;;24.00;4.10;;;;;;;;;;5044429;28;20776;-73
2024/01/23 13:08:35;;;;;;;22.30;4.30;;;;;;;;;;5045017;28;20256;-73
2024/01/23 13:11:00;;;;;;;26.02;4.68;;;;;;;;;;5044561;28;20252;-72
2024/01/23 13:13:26;;;;;;;24.95;4.80;;;;;;;;;;5044852;28;20272;-72
2024/01/23 13:15:51;;;;;;;24.35;4.22;;;;;;;;;;5045687;28;20229;-73
2024/01/23 13:18:17;;;;;;;28.83;4.43;;;;;;;;;;5036098;28;20666;-73
2024/01/23 13:20:42;;;;;;;27.95;3.85;;;;;;;;;;5040735;28;20189;-74
2024/01/23 13:23:07;;;;;;;20.95;3.58;;;;;;;;;;5037815;28;20272;-72
2024/01/23 13:25:34;;;;;;;27.15;4.05;;;;;;;;;;5033186;28;20186;-74
2024/01/23 13:27:59;;;;;;;22.40;4.18;;;;;;;;;;5040594;28;20209;-73
2024/01/23 13:30:29;;;;;;;19.83;4.22;;;;;;;;;;5042823;28;20621;-72
2024/01/23 13:32:55;;;;;;;25.58;4.70;;;;;;;;;;5042449;28;20217;-74
2024/01/23 13:35:21;;;;;;;29.73;4.45;;;;;;;;;;5038680;28;20190;-73
2024/01/23 13:37:47;;;;;;;26.90;4.40;;;;;;;;;;5035859;28;20568;-73
2024/01/23 13:40:12;;;;;;;21.48;4.15;;;;;;;;;;5039160;28;20261;-72
2024/01/23 13:42:41;;;;;;;25.27;4.43;;;;;;;;;;5033139;28;20182;-73
2024/01/23 13:45:07;;;;;;;20.95;4.00;;;;;;;;;;5040371;28;20567;-73
2024/01/23 13:47:38;;;;;;;25.70;3.90;;;;;;;;;;5038652;28;20214;-73
2024/01/23 13:50:04;;;;;;;21.33;4.03;;;;;;;;;;5039062;28;20190;-72
2024/01/23 13:52:30;;;;;;;21.55;4.20;;;;;;;;;;5033781;28;20194;-72
2024/01/23 13:54:56;;;;;;;23.30;4.18;;;;;;;;;;5038624;28;20360;-73
2024/01/23 13:57:21;;;;;;;28.45;4.28;;;;;;;;;;5040514;28;20320;-73
2024/01/23 13:59:47;;;;;;;22.35;4.10;;;;;;;;;;5035340;28;20189;-73
2024/01/23 14:02:15;;;;;;;27.48;4.30;;;;;;;;;;5041245;28;20186;-73
2024/01/23 14:04:40;;;;;;;29.63;4.35;;;;;;;;;;5042074;28;20254;-74
2024/01/23 14:07:07;;;;;;;19.52;3.67;;;;;;;;;;5028126;28;20218;-73
2024/01/23 14:09:33;;;;;;;23.60;3.88;;;;;;;;;;5042359;28;20219;-73
2024/01/23 14:11:59;;;;;;;21.60;3.92;;;;;;;;;;5038724;28;20196;-73
2024/01/23 14:14:24;;;;;;;27.52;4.60;;;;;;;;;;5040042;28;20186;-73
2024/01/23 14:16:50;;;;;;;30.27;5.22;;;;;;;;;;5036487;28;20232;-74
2024/01/23 14:19:15;;;;;;;27.65;4.35;;;;;;;;;;5034718;28;20201;-73
2024/01/23 14:21:41;;;;;;;18.60;3.17;;;;;;;;;;5040270;28;20555;-73
2024/01/23 14:24:06;;;;;;;26.17;4.05;;;;;;;;;;5043735;28;20711;-73
2024/01/23 14:26:32;;;;;;;24.73;4.47;;;;;;;;;;5037140;28;20351;-73